Time;durP1;ratioP1;P1;durP2;ratioP2;P2;SDS_P1;SDS_P2;PMS_P1;PMS_P2;Temp;Humidity;BMP_temperature;BMP_pressure;BME280_temperature;BME280_humidity;BME280_pressure;Samples;Min_cycle;Max_cycle;Signal;HPM_P1;HPM_P2
2022/05/23 00:01:42;;;;;;;1.15;0.05;;;16.20;99.90;;;;;;5033301;28;20511;-74
2022/05/23 00:04:08;;;;;;;3.08;0.08;;;16.10;99.90;;;;;;5033708;28;20051;-74
2022/05/23 00:06:36;;;;;;;4.68;0.10;;;16.10;99.90;;;;;;5031991;28;20023;-74
2022/05/23 00:09:03;;;;;;;0.32;0.00;;;17.50;99.90;;;;;;5032037;28;20013;-74
2022/05/23 00:11:28;;;;;;;0.73;0.00;;;16.10;99.90;;;;;;5033934;28;20013;-74
2022/05/23 00:13:54;;;;;;;4.05;0.35;;;16.10;99.90;;;;;;5031840;28;20484;-74
2022/05/23 00:16:28;;;;;;;1.48;0.05;;;16.10;99.90;;;;;;5031868;28;20032;-74
2022/05/23 00:18:53;;;;;;;2.25;0.35;;;16.00;99.90;;;;;;5033236;28;20117;-74
2022/05/23 00:21:19;;;;;;;3.03;0.28;;;16.10;99.90;;;;;;5033033;28;20057;-74
2022/05/23 00:23:45;;;;;;;2.20;0.20;;;16.00;99.90;;;;;;5032939;28;20029;-74
2022/05/23 00:26:14;;;;;;;2.65;0.17;;;16.00;99.90;;;;;;5033055;28;20022;-74
2022/05/23 00:28:39;;;;;;;3.15;0.08;;;15.90;99.90;;;;;;5033003;28;20029;-74
2022/05/23 00:31:06;;;;;;;3.45;0.10;;;16.40;99.90;;;;;;5033333;28;20033;-74
2022/05/23 00:36:16;;;;;;;3.58;0.28;;;15.90;99.90;;;;;;5033541;28;20076;-74
2022/05/23 00:38:41;;;;;;;2.00;0.20;;;15.90;99.90;;;;;;5036891;28;20021;-74
2022/05/23 00:44:25;;;;;;;3.97;0.00;;;15.80;99.90;;;;;;5036872;28;20095;-74
2022/05/23 00:46:59;;;;;;;2.47;0.47;;;15.70;99.90;;;;;;5037073;28;20108;-74
2022/05/23 00:49:36;;;;;;;1.45;0.32;;;15.70;99.90;;;;;;5052255;28;20693;-74
2022/05/23 00:52:05;;;;;;;2.10;0.30;;;15.70;99.90;;;;;;5052216;28;20049;-74
2022/05/23 00:54:37;;;;;;;1.58;0.38;;;15.70;99.90;;;;;;5052129;28;20018;-74
2022/05/23 00:57:05;;;;;;;5.10;0.45;;;15.60;99.90;;;;;;5036480;28;20480;-74
2022/05/23 00:59:33;;;;;;;4.03;0.17;;;15.60;99.90;;;;;;5036938;28;20537;-74
2022/05/23 01:02:02;;;;;;;3.72;0.20;;;15.60;99.90;;;;;;5036434;28;20021;-74
2022/05/23 01:04:30;;;;;;;5.20;0.10;;;15.50;99.90;;;;;;5035923;28;20025;-73
2022/05/23 01:06:56;;;;;;;3.63;0.22;;;15.50;99.90;;;;;;5036274;28;20026;-73
2022/05/23 01:09:25;;;;;;;2.30;0.08;;;15.50;99.90;;;;;;5036316;28;20021;-73
2022/05/23 01:11:52;;;;;;;0.80;0.00;;;15.50;99.90;;;;;;5036714;28;20014;-73
2022/05/23 01:14:18;;;;;;;2.42;0.30;;;15.50;99.90;;;;;;5036386;28;20033;-73
2022/05/23 01:16:43;;;;;;;4.78;0.05;;;15.50;99.90;;;;;;5036040;28;20018;-73
2022/05/23 01:19:09;;;;;;;6.20;0.55;;;15.40;99.90;;;;;;5036381;28;20017;-74
2022/05/23 01:22:00;;;;;;;3.25;0.10;;;15.40;99.90;;;;;;5036471;28;20060;-74
2022/05/23 01:24:34;;;;;;;1.50;0.10;;;15.40;99.90;;;;;;5036172;28;20392;-73
2022/05/23 01:27:02;;;;;;;1.27;0.28;;;15.30;99.90;;;;;;5034575;28;20029;-73
2022/05/23 01:29:27;;;;;;;2.42;0.17;;;15.40;99.90;;;;;;5035894;28;20208;-74
2022/05/23 01:31:55;;;;;;;1.55;0.00;;;15.30;99.90;;;;;;5035683;28;20068;-75
2022/05/23 01:34:21;;;;;;;4.85;0.25;;;15.30;99.90;;;;;;5035521;28;20432;-75
2022/05/23 01:36:46;;;;;;;2.47;0.22;;;15.20;99.90;;;;;;5035526;28;20029;-75
2022/05/23 01:39:12;;;;;;;1.95;0.30;;;15.20;99.90;;;;;;5035442;28;20052;-75
2022/05/23 01:41:38;;;;;;;1.98;0.47;;;15.20;99.90;;;;;;5035403;28;20029;-74
2022/05/23 01:44:03;;;;;;;3.30;0.30;;;15.10;99.90;;;;;;5034270;28;20018;-74
2022/05/23 01:46:29;;;;;;;7.63;0.50;;;15.10;99.90;;;;;;5035509;28;20460;-75
2022/05/23 01:48:55;;;;;;;2.67;0.65;;;15.70;99.90;;;;;;5034394;28;20416;-74
2022/05/23 01:51:20;;;;;;;0.32;0.03;;;15.00;99.90;;;;;;5035251;28;20385;-74
2022/05/23 01:53:46;;;;;;;2.75;0.10;;;15.00;99.90;;;;;;5036269;28;20052;-74
2022/05/23 01:56:12;;;;;;;2.58;0.82;;;15.00;99.90;;;;;;5035326;28;20025;-74
2022/05/23 02:01:21;;;;;;;2.47;0.25;;;14.90;99.90;;;;;;5036010;28;20033;-75
2022/05/23 02:03:48;;;;;;;3.10;0.10;;;14.90;99.90;;;;;;5035077;28;20021;-75
2022/05/23 02:06:14;;;;;;;1.17;0.10;;;14.90;99.90;;;;;;5033627;28;20114;-74
2022/05/23 02:08:40;;;;;;;1.50;0.20;;;14.80;99.90;;;;;;5033544;28;20065;-74
2022/05/23 02:11:06;;;;;;;2.65;0.35;;;14.80;99.90;;;;;;5034755;28;20032;-75
2022/05/23 02:13:37;;;;;;;2.38;0.00;;;14.80;99.90;;;;;;5050785;28;20121;-76
2022/05/23 02:16:03;;;;;;;4.80;0.43;;;14.80;99.90;;;;;;5034826;28;20392;-76
2022/05/23 02:18:29;;;;;;;2.50;0.32;;;14.70;99.90;;;;;;5049799;28;20480;-75
2022/05/23 02:20:55;;;;;;;2.65;0.30;;;14.70;99.90;;;;;;5033460;28;20366;-75
2022/05/23 02:23:21;;;;;;;1.50;0.15;;;14.70;99.90;;;;;;5033360;28;20021;-75
2022/05/23 02:25:47;;;;;;;3.38;0.10;;;14.70;99.90;;;;;;5033397;28;20076;-75
2022/05/23 02:28:13;;;;;;;5.32;0.50;;;14.60;99.90;;;;;;5033135;28;20431;-75
2022/05/23 02:30:39;;;;;;;2.63;0.43;;;14.60;99.90;;;;;;5034146;28;20431;-74
2022/05/23 02:33:05;;;;;;;2.83;0.40;;;14.60;99.90;;;;;;5050016;28;20112;-74
2022/05/23 02:35:31;;;;;;;1.10;0.22;;;14.60;99.90;;;;;;5034463;28;20108;-75
2022/05/23 02:37:57;;;;;;;1.85;0.52;;;14.50;99.90;;;;;;5034449;28;20026;-75
2022/05/23 02:40:23;;;;;;;0.28;0.20;;;15.20;99.90;;;;;;5034377;28;20040;-75
2022/05/23 02:42:49;;;;;;;1.83;0.00;;;14.50;99.90;;;;;;5034401;28;20029;-76
2022/05/23 02:45:15;;;;;;;2.28;0.50;;;14.60;99.90;;;;;;5032920;28;20018;-76
2022/05/23 02:47:42;;;;;;;1.65;0.15;;;15.80;99.90;;;;;;5034262;28;20021;-76
2022/05/23 02:50:08;;;;;;;3.00;0.45;;;14.40;99.90;;;;;;5032961;28;20025;-76
2022/05/23 02:52:34;;;;;;;2.28;0.13;;;14.40;99.90;;;;;;5032930;28;20017;-76
2022/05/23 02:55:00;;;;;;;1.75;0.30;;;14.40;99.90;;;;;;5034038;28;20160;-76
2022/05/23 02:57:26;;;;;;;3.40;0.10;;;14.40;99.90;;;;;;5032644;28;20071;-76
2022/05/23 02:59:51;;;;;;;1.80;0.00;;;14.30;99.90;;;;;;5032406;28;20030;-76
2022/05/23 03:05:01;;;;;;;1.88;0.10;;;14.30;99.90;;;;;;5034586;28;20119;-75
2022/05/23 03:07:26;;;;;;;3.10;0.20;;;14.20;99.90;;;;;;5034136;28;20445;-76
2022/05/23 03:09:52;;;;;;;3.25;0.20;;;14.20;99.90;;;;;;5033922;28;20370;-76
2022/05/23 03:12:18;;;;;;;0.82;0.03;;;14.40;99.90;;;;;;5034107;28;20021;-75
2022/05/23 03:14:43;;;;;;;2.40;0.10;;;14.20;99.90;;;;;;5033831;28;20392;-76
2022/05/23 03:17:10;;;;;;;3.00;0.22;;;14.10;99.90;;;;;;5032469;28;20021;-76
2022/05/23 03:19:37;;;;;;;1.88;0.10;;;14.20;99.90;;;;;;5033706;28;20470;-76
2022/05/23 03:27:33;;;;;;;1.80;0.10;;;14.20;99.90;;;;;;5033604;28;20087;-75
2022/05/23 03:29:58;;;;;;;2.92;0.22;;;14.20;99.90;;;;;;5032325;28;20465;-75
2022/05/23 03:32:24;;;;;;;3.92;0.22;;;14.20;99.90;;;;;;5032164;28;20088;-76
2022/05/23 03:34:50;;;;;;;0.75;0.10;;;14.20;99.90;;;;;;5033411;28;20017;-75
2022/05/23 03:37:16;;;;;;;1.33;0.20;;;14.10;99.90;;;;;;5033629;28;20048;-75
2022/05/23 03:39:43;;;;;;;4.20;0.45;;;14.10;99.90;;;;;;5033820;28;20041;-76
2022/05/23 03:42:08;;;;;;;4.00;0.45;;;14.10;99.90;;;;;;5033338;28;20140;-76
2022/05/23 03:44:35;;;;;;;2.08;0.13;;;14.10;99.90;;;;;;5033442;28;20040;-76
2022/05/23 03:47:03;;;;;;;2.30;0.57;;;14.10;99.90;;;;;;5033449;28;20025;-75
2022/05/23 03:49:30;;;;;;;0.95;0.08;;;14.00;99.90;;;;;;5033563;28;20018;-75
2022/05/23 03:51:56;;;;;;;1.95;0.40;;;14.00;99.90;;;;;;5033481;28;20103;-75
2022/05/23 03:54:21;;;;;;;2.90;0.20;;;14.00;99.90;;;;;;5033299;28;20021;-75
2022/05/23 03:56:47;;;;;;;1.17;0.17;;;13.90;99.90;;;;;;5032104;28;20021;-75
2022/05/23 03:59:12;;;;;;;2.70;0.30;;;13.90;99.90;;;;;;5033295;28;20022;-75
2022/05/23 04:01:38;;;;;;;2.85;0.20;;;13.90;99.90;;;;;;5033211;28;20061;-75
2022/05/23 04:04:04;;;;;;;0.65;0.22;;;15.10;99.90;;;;;;5033087;28;20029;-76
2022/05/23 04:06:29;;;;;;;0.57;0.10;;;13.90;99.90;;;;;;5033102;28;20029;-76
2022/05/23 04:08:55;;;;;;;3.15;0.63;;;13.90;99.90;;;;;;5031887;28;20025;-76
2022/05/23 04:11:21;;;;;;;3.05;0.35;;;13.90;99.90;;;;;;5033829;28;20031;-76
2022/05/23 04:13:47;;;;;;;3.85;0.00;;;13.90;99.90;;;;;;5036437;28;20024;-75
2022/05/23 04:16:13;;;;;;;5.22;0.25;;;13.90;99.90;;;;;;5035773;28;20476;-76
2022/05/23 04:18:38;;;;;;;5.75;1.20;;;13.90;99.90;;;;;;5035929;28;20029;-75
2022/05/23 04:21:05;;;;;;;2.72;0.30;;;13.90;99.90;;;;;;5035768;28;20025;-76
2022/05/23 04:23:31;;;;;;;1.50;0.20;;;13.90;99.90;;;;;;5036920;28;20033;-76
2022/05/23 04:26:02;;;;;;;1.25;0.22;;;14.00;99.90;;;;;;5036953;28;20021;-75
2022/05/23 04:28:28;;;;;;;2.72;0.30;;;13.90;99.90;;;;;;5037124;28;20017;-75
2022/05/23 04:30:53;;;;;;;4.55;0.50;;;13.90;99.90;;;;;;5052110;28;20072;-75
2022/05/23 04:36:04;;;;;;;1.25;0.10;;;14.00;99.90;;;;;;5037473;28;20526;-75
2022/05/23 04:38:29;;;;;;;1.55;0.40;;;14.00;99.90;;;;;;5036701;28;20061;-76
2022/05/23 04:40:55;;;;;;;2.00;0.65;;;14.00;99.90;;;;;;5037060;28;20080;-75
2022/05/23 04:43:20;;;;;;;2.35;0.50;;;14.10;99.90;;;;;;5037061;28;20028;-75
2022/05/23 04:45:46;;;;;;;6.80;0.40;;;14.10;99.90;;;;;;5036712;28;20100;-75
2022/05/23 04:50:56;;;;;;;2.90;0.40;;;14.10;99.90;;;;;;5036925;28;20040;-75
2022/05/23 04:53:22;;;;;;;4.38;0.80;;;14.10;99.90;;;;;;5036439;28;20525;-77
2022/05/23 04:55:47;;;;;;;1.52;0.30;;;14.10;99.90;;;;;;5035376;28;20109;-75
2022/05/23 04:58:13;;;;;;;4.85;1.15;;;14.10;99.90;;;;;;5036520;28;20025;-76
2022/05/23 05:00:40;;;;;;;1.38;0.47;;;14.60;99.90;;;;;;5036036;28;20025;-76
2022/05/23 05:03:06;;;;;;;4.10;0.40;;;14.20;99.90;;;;;;5036157;28;20603;-75
2022/05/23 05:05:33;;;;;;;1.58;0.45;;;14.20;99.90;;;;;;5035998;28;20109;-75
2022/05/23 05:08:00;;;;;;;3.10;0.70;;;14.20;99.90;;;;;;5051336;28;20043;-75
2022/05/23 05:10:26;;;;;;;2.78;0.20;;;14.30;99.90;;;;;;5036449;28;20053;-75
2022/05/23 05:12:53;;;;;;;2.13;0.50;;;14.50;99.90;;;;;;5034682;28;20029;-75
2022/05/23 05:15:20;;;;;;;1.67;0.40;;;14.50;99.90;;;;;;5051304;28;20105;-75
2022/05/23 05:17:46;;;;;;;4.63;1.10;;;14.60;99.90;;;;;;5036040;28;20061;-75
2022/05/23 05:20:13;;;;;;;3.00;1.17;;;14.70;99.90;;;;;;5051198;28;20026;-76
2022/05/23 05:22:39;;;;;;;4.53;1.00;;;14.90;99.90;;;;;;5035511;28;20396;-75
2022/05/23 05:25:06;;;;;;;5.95;0.45;;;14.90;99.90;;;;;;5035571;28;20024;-75
2022/05/23 05:27:32;;;;;;;3.28;0.55;;;15.00;99.90;;;;;;5035594;28;20385;-75
2022/05/23 05:29:58;;;;;;;3.67;0.45;;;15.20;99.90;;;;;;5035995;28;20021;-74
2022/05/23 05:32:43;;;;;;;2.22;0.93;;;15.30;99.90;;;;;;5035592;28;20037;-73
2022/05/23 05:35:16;;;;;;;4.53;1.00;;;15.40;99.90;;;;;;5051324;28;20345;-73
2022/05/23 05:37:47;;;;;;;5.55;1.05;;;15.50;99.90;;;;;;5035636;28;20027;-73
2022/05/23 05:40:18;;;;;;;4.38;0.95;;;15.60;99.90;;;;;;5050688;28;20025;-74
2022/05/23 05:42:50;;;;;;;1.33;0.82;;;15.70;99.90;;;;;;5051268;28;20056;-74
2022/05/23 05:45:22;;;;;;;5.00;0.80;;;15.70;99.90;;;;;;5051601;28;20099;-74
2022/05/23 05:47:50;;;;;;;3.90;0.55;;;15.80;99.90;;;;;;5051931;28;20028;-74
2022/05/23 05:50:21;;;;;;;3.85;1.13;;;15.80;99.90;;;;;;5050817;28;20021;-74
2022/05/23 05:52:47;;;;;;;4.28;0.75;;;15.80;99.90;;;;;;5014905;28;20113;-74
2022/05/23 05:55:13;;;;;;;2.38;0.55;;;15.90;99.90;;;;;;5014552;28;20025;-73
2022/05/23 05:57:38;;;;;;;5.63;1.23;;;15.90;99.90;;;;;;5015018;28;20026;-73
2022/05/23 06:00:06;;;;;;;5.60;1.08;;;16.00;99.90;;;;;;5015283;28;20045;-73
2022/05/23 06:02:32;;;;;;;7.72;1.20;;;16.10;99.90;;;;;;5016228;28;20053;-74
2022/05/23 06:04:57;;;;;;;3.63;0.93;;;16.20;99.90;;;;;;5016379;28;20381;-73
2022/05/23 06:12:58;;;;;;;3.85;0.75;;;16.70;99.90;;;;;;5017022;28;20125;-74
2022/05/23 06:15:24;;;;;;;4.35;0.82;;;17.00;99.90;;;;;;5016473;28;20057;-73
2022/05/23 06:17:52;;;;;;;4.22;1.25;;;17.20;99.90;;;;;;5017200;28;20026;-73
2022/05/23 06:20:19;;;;;;;5.43;0.70;;;17.50;99.90;;;;;;5015893;28;20025;-74
2022/05/23 06:22:45;;;;;;;5.10;1.05;;;17.50;99.90;;;;;;5015703;28;20065;-74
2022/05/23 06:25:13;;;;;;;2.10;0.90;;;17.70;99.90;;;;;;5015350;28;20018;-74
2022/05/23 06:27:40;;;;;;;5.43;1.30;;;17.70;99.90;;;;;;5014468;28;20022;-74
2022/05/23 06:32:33;;;;;;;4.97;1.20;;;17.90;99.90;;;;;;5054468;28;20045;-75
2022/05/23 06:34:59;;;;;;;4.47;1.02;;;18.00;99.90;;;;;;5055790;28;20031;-76
2022/05/23 06:37:25;;;;;;;5.53;1.42;;;18.00;99.90;;;;;;5056361;28;20010;-76
2022/05/23 06:39:51;;;;;;;2.35;1.27;;;18.00;99.90;;;;;;5055118;28;20013;-76
2022/05/23 06:42:16;;;;;;;4.45;1.20;;;18.20;99.90;;;;;;5053976;28;20025;-76
2022/05/23 06:44:42;;;;;;;4.13;1.30;;;18.30;99.90;;;;;;5055199;28;20025;-76
2022/05/23 06:47:08;;;;;;;2.58;1.13;;;18.40;99.90;;;;;;5055157;28;20071;-76
2022/05/23 06:49:33;;;;;;;1.48;0.85;;;18.50;99.90;;;;;;5055151;28;20032;-76
2022/05/23 06:52:03;;;;;;;6.82;1.30;;;18.70;99.90;;;;;;5053407;28;20090;-76
2022/05/23 06:54:28;;;;;;;4.20;1.48;;;18.90;99.90;;;;;;5054582;28;20072;-76
2022/05/23 06:56:54;;;;;;;2.83;0.88;;;19.10;99.90;;;;;;5054073;28;20025;-76
2022/05/23 06:59:20;;;;;;;3.42;0.93;;;19.20;99.90;;;;;;5054520;28;20025;-76
2022/05/23 07:01:46;;;;;;;2.10;0.80;;;19.40;99.90;;;;;;5053384;28;20395;-76
2022/05/23 07:04:12;;;;;;;2.50;0.80;;;19.40;99.90;;;;;;5053251;28;20021;-76
2022/05/23 07:12:23;;;;;;;1.25;0.63;;;19.50;99.90;;;;;;5054672;28;20552;-76
2022/05/23 07:14:50;;;;;;;1.98;0.55;;;19.60;99.90;;;;;;5053151;28;20048;-76
2022/05/23 07:17:16;;;;;;;4.95;0.88;;;19.80;99.90;;;;;;5054341;28;20051;-76
2022/05/23 07:19:42;;;;;;;4.78;1.05;;;20.00;99.90;;;;;;5053122;28;20021;-75
2022/05/23 07:22:08;;;;;;;1.10;0.55;;;20.10;99.90;;;;;;5054460;28;20017;-76
2022/05/23 07:24:34;;;;;;;2.88;0.45;;;20.20;99.90;;;;;;5054415;28;20021;-76
2022/05/23 07:27:00;;;;;;;4.03;0.77;;;20.40;99.90;;;;;;5054335;28;20502;-76
2022/05/23 07:29:26;;;;;;;1.92;0.55;;;20.40;99.90;;;;;;5054153;28;20060;-76
2022/05/23 07:31:52;;;;;;;2.38;0.50;;;20.50;99.90;;;;;;5054080;28;20087;-76
2022/05/23 07:34:18;;;;;;;3.53;1.13;;;20.50;99.90;;;;;;5054145;28;20175;-76
2022/05/23 07:36:44;;;;;;;4.57;0.63;;;20.40;99.90;;;;;;5053816;28;20029;-76
2022/05/23 07:39:11;;;;;;;8.90;0.95;;;20.40;99.90;;;;;;5054059;28;20025;-76
2022/05/23 07:41:41;;;;;;;3.67;0.68;;;20.40;99.90;;;;;;5054169;28;20013;-76
2022/05/23 07:44:11;;;;;;;5.10;1.25;;;20.30;99.90;;;;;;5052228;28;20067;-76
2022/05/23 07:46:40;;;;;;;2.15;0.80;;;20.30;99.90;;;;;;5054990;28;20036;-76
2022/05/23 07:49:05;;;;;;;;;;;20.20;99.90;;;;;;5058383;28;20025;-76
2022/05/23 07:51:32;;;;;;;3.25;0.77;;;20.20;99.90;;;;;;5058126;28;19996;-76
2022/05/23 08:02:13;;;;;;;5.32;0.70;;;20.20;99.90;;;;;;5057917;28;20451;-74
2022/05/23 08:04:39;;;;;;;2.70;0.82;;;20.10;99.90;;;;;;5057128;28;20029;-74
2022/05/23 08:07:07;;;;;;;3.70;0.45;;;20.20;99.90;;;;;;5057292;28;20032;-74
2022/05/23 08:09:33;;;;;;;6.45;1.10;;;20.20;99.90;;;;;;5057441;28;20365;-74
2022/05/23 08:11:59;;;;;;;3.83;1.23;;;20.30;99.90;;;;;;5055790;28;20074;-74
2022/05/23 08:14:24;;;;;;;3.60;0.93;;;20.40;99.90;;;;;;5055912;28;20021;-74
2022/05/23 08:16:51;;;;;;;3.33;0.88;;;20.40;99.90;;;;;;5055806;28;20064;-74
2022/05/23 08:19:16;;;;;;;5.35;1.13;;;20.40;99.90;;;;;;5057052;28;20032;-74
2022/05/23 08:21:55;;;;;;;3.25;1.20;;;20.60;99.90;;;;;;5056977;28;20025;-74
2022/05/23 08:24:21;;;;;;;3.50;1.65;;;20.70;99.90;;;;;;5057008;28;20376;-74
2022/05/23 08:26:47;;;;;;;4.10;1.25;;;20.80;99.90;;;;;;5055897;28;20009;-74
2022/05/23 08:29:13;;;;;;;4.18;1.67;;;20.90;99.90;;;;;;5057232;28;20429;-74
2022/05/23 08:31:39;;;;;;;3.83;1.40;;;20.90;99.90;;;;;;5057076;28;20067;-74
2022/05/23 08:34:05;;;;;;;3.78;1.42;;;20.90;99.90;;;;;;5056672;28;20498;-74
2022/05/23 08:36:31;;;;;;;7.57;2.00;;;21.00;99.90;;;;;;5056721;28;20021;-75
2022/05/23 08:38:57;;;;;;;4.57;2.45;;;21.00;99.90;;;;;;5056825;28;20105;-74
2022/05/23 08:41:40;;;;;;;4.97;2.10;;;21.00;99.90;;;;;;5056356;28;20056;-74
2022/05/23 08:44:18;;;;;;;7.40;2.42;;;21.00;99.90;;;;;;5056352;28;20032;-74
2022/05/23 08:47:02;;;;;;;4.85;1.80;;;21.00;99.90;;;;;;5056952;28;20099;-74
2022/05/23 08:49:46;;;;;;;5.30;2.25;;;21.00;99.90;;;;;;5056684;28;20028;-74
2022/05/23 08:52:38;;;;;;;6.20;2.10;;;21.10;99.90;;;;;;5056885;28;20021;-74
2022/05/23 08:55:09;;;;;;;6.22;1.80;;;21.30;99.90;;;;;;5056447;28;20052;-74
2022/05/23 08:58:01;;;;;;;6.20;2.47;;;21.60;99.90;;;;;;5054605;28;20036;-74
2022/05/23 09:00:38;;;;;;;3.33;1.40;;;21.90;99.90;;;;;;5056718;28;20025;-74
2022/05/23 09:03:27;;;;;;;5.15;1.67;;;22.10;99.90;;;;;;5054800;28;20430;-74
2022/05/23 09:06:18;;;;;;;3.45;1.98;;;22.20;99.90;;;;;;5055048;28;20025;-74
2022/05/23 09:08:54;;;;;;;4.53;1.38;;;22.40;99.90;;;;;;5049558;28;20029;-74
2022/05/23 09:11:25;;;;;;;3.75;1.13;;;22.60;99.90;;;;;;5054929;28;20035;-74
2022/05/23 09:13:51;;;;;;;2.58;1.25;;;22.70;99.90;;;;;;5056346;28;20475;-74
2022/05/23 09:16:17;;;;;;;4.22;1.92;;;22.70;99.90;;;;;;5054717;28;20032;-74
2022/05/23 09:18:55;;;;;;;6.70;1.35;;;22.70;99.90;;;;;;5056071;28;20029;-74
2022/05/23 09:21:21;;;;;;;4.53;2.00;;;22.70;99.90;;;;;;5055950;28;20024;-74
2022/05/23 09:23:51;;;;;;;5.47;1.40;;;22.70;99.50;;;;;;5055826;28;20028;-74
2022/05/23 09:26:26;;;;;;;6.63;1.75;;;22.60;99.50;;;;;;5056475;28;20055;-75
2022/05/23 09:28:52;;;;;;;3.13;1.23;;;22.50;99.90;;;;;;5056223;28;20019;-74
2022/05/23 09:31:23;;;;;;;2.95;2.17;;;22.40;99.90;;;;;;5054415;28;20484;-74
2022/05/23 09:33:51;;;;;;;3.35;1.50;;;22.30;99.90;;;;;;5054756;28;20090;-74
2022/05/23 09:36:29;;;;;;;4.40;1.20;;;22.20;99.90;;;;;;5055777;28;20017;-74
2022/05/23 09:39:00;;;;;;;3.85;1.58;;;22.10;99.90;;;;;;5055863;28;20036;-74
2022/05/23 09:49:52;;;;;;;9.50;2.53;;;21.90;99.90;;;;;;5056742;28;20059;-74
2022/05/23 09:52:48;;;;;;;4.80;1.40;;;21.90;99.90;;;;;;5055024;28;20112;-74
2022/05/23 09:55:31;;;;;;;6.40;1.40;;;21.90;99.90;;;;;;5054389;28;20029;-74
2022/05/23 09:58:21;;;;;;;3.85;1.60;;;22.00;99.90;;;;;;5056081;28;20021;-74
2022/05/23 10:01:01;;;;;;;6.78;2.17;;;22.10;99.90;;;;;;5052231;28;20095;-74
2022/05/23 10:03:29;;;;;;;5.65;1.77;;;22.10;99.90;;;;;;5054625;28;20037;-74
2022/05/23 10:06:11;;;;;;;4.07;1.50;;;22.20;99.90;;;;;;5055414;28;20476;-74
2022/05/23 10:08:43;;;;;;;5.35;2.00;;;22.20;99.90;;;;;;5055129;28;20104;-74
2022/05/23 10:11:18;;;;;;;6.85;1.75;;;22.20;99.90;;;;;;5055092;28;20029;-74
2022/05/23 10:13:53;;;;;;;6.32;2.03;;;22.20;99.90;;;;;;5053766;28;20091;-74
2022/05/23 10:16:28;;;;;;;5.97;2.22;;;22.30;99.90;;;;;;5054057;28;20052;-74
2022/05/23 10:19:03;;;;;;;5.90;1.80;;;22.40;99.90;;;;;;5055314;28;20075;-75
2022/05/23 10:21:38;;;;;;;3.55;1.95;;;22.40;99.90;;;;;;5055844;28;20383;-74
2022/05/23 10:24:18;;;;;;;6.35;2.20;;;22.40;99.90;;;;;;5054695;28;20078;-75
2022/05/23 10:26:52;;;;;;;4.70;1.75;;;22.40;99.90;;;;;;5053572;28;20021;-74
2022/05/23 10:29:24;;;;;;;7.72;2.45;;;22.40;99.90;;;;;;5054721;28;20099;-74
2022/05/23 10:31:53;;;;;;;4.75;1.48;;;22.40;99.90;;;;;;5054688;28;20028;-74
2022/05/23 10:34:39;;;;;;;5.82;1.58;;;22.40;99.90;;;;;;5053154;28;20053;-75
2022/05/23 10:37:09;;;;;;;6.05;1.95;;;22.30;99.90;;;;;;5055086;28;20487;-74
2022/05/23 10:42:31;;;;;;;3.63;1.90;;;22.30;99.90;;;;;;5054998;28;20454;-75
2022/05/23 10:45:26;;;;;;;6.07;1.80;;;22.30;99.90;;;;;;5054743;28;20459;-74
2022/05/23 10:48:10;;;;;;;8.38;1.73;;;22.40;99.90;;;;;;5051974;28;20036;-75
2022/05/23 10:50:50;;;;;;;3.60;1.08;;;22.40;99.90;;;;;;5054275;28;20451;-75
2022/05/23 10:53:21;;;;;;;3.63;1.60;;;22.50;99.90;;;;;;5054457;28;20028;-74
2022/05/23 10:56:13;;;;;;;3.15;2.00;;;22.60;99.90;;;;;;5054391;28;20025;-74
2022/05/23 10:59:28;;;;;;;4.10;1.60;;;22.70;99.90;;;;;;5051105;28;20037;-74
2022/05/23 11:02:18;;;;;;;4.60;1.92;;;22.80;99.90;;;;;;5045361;28;20044;-74
2022/05/23 11:05:21;;;;;;;3.90;1.50;;;22.90;99.90;;;;;;5054111;28;20075;-74
2022/05/23 11:08:11;;;;;;;8.90;1.83;;;22.90;99.90;;;;;;5052801;28;20037;-74
2022/05/23 11:10:43;;;;;;;3.78;2.28;;;23.00;99.90;;;;;;5052644;28;20056;-75
2022/05/23 11:13:21;;;;;;;6.03;1.70;;;23.10;99.90;;;;;;5053802;28;20024;-74
2022/05/23 11:15:52;;;;;;;6.03;1.60;;;23.30;99.90;;;;;;5053839;28;20029;-75
2022/05/23 11:18:24;;;;;;;4.40;1.80;;;23.60;99.90;;;;;;5054123;28;20120;-74
2022/05/23 11:20:54;;;;;;;2.55;0.95;;;24.00;99.90;;;;;;5053924;28;20033;-74
2022/05/23 11:23:41;;;;;;;3.67;1.33;;;24.40;98.90;;;;;;5053761;28;20035;-74
2022/05/23 11:26:23;;;;;;;2.15;0.90;;;24.70;96.60;;;;;;5054016;28;20090;-75
2022/05/23 11:34:57;;;;;;;2.10;0.70;;;25.50;88.60;;;;;;5054000;28;20040;-75
2022/05/23 11:40:06;;;;;;;2.25;0.35;;;26.30;87.30;;;;;;5054176;28;20078;-76
2022/05/23 11:42:35;;;;;;;2.80;0.45;;;26.40;85.20;;;;;;5052265;28;20054;-76
2022/05/23 11:48:01;;;;;;;3.75;0.63;;;26.30;83.80;;;;;;5053382;28;20087;-76
2022/05/23 11:50:31;;;;;;;3.08;0.50;;;26.30;78.90;;;;;;5053118;28;20025;-76
2022/05/23 11:53:34;;;;;;;3.03;0.93;;;26.30;79.20;;;;;;5053418;28;20033;-75
2022/05/23 11:56:03;;;;;;;1.15;0.52;;;26.00;81.30;;;;;;5031346;28;20040;-75
2022/05/23 11:58:48;;;;;;;;;;;26.00;82.50;;;;;;5049772;28;20395;-75
2022/05/23 12:01:14;;;;;;;1.42;0.32;;;25.90;82.60;;;;;;5053888;28;19911;-76
2022/05/23 12:03:55;;;;;;;1.02;0.22;;;25.80;82.00;;;;;;5053370;28;20033;-76
2022/05/23 12:06:24;;;;;;;5.00;0.68;;;25.70;83.60;;;;;;5053862;28;20018;-76
2022/05/23 12:09:02;;;;;;;3.83;0.60;;;25.60;86.40;;;;;;5053688;28;20028;-75
2022/05/23 12:11:32;;;;;;;2.83;0.75;;;25.50;81.50;;;;;;5053197;28;20021;-76
2022/05/23 12:14:16;;;;;;;0.40;0.10;;;25.50;85.90;;;;;;5051686;28;20029;-80
2022/05/23 12:16:57;;;;;;;1.45;0.20;;;25.50;85.40;;;;;;5053504;28;20522;-76
2022/05/23 12:19:40;;;;;;;3.45;1.38;;;25.60;82.90;;;;;;5053085;28;20480;-76
2022/05/23 12:22:36;;;;;;;4.13;0.15;;;25.60;84.00;;;;;;5052882;28;20067;-76
2022/05/23 12:25:08;;;;;;;3.08;0.10;;;25.60;81.80;;;;;;5043514;28;20029;-77
2022/05/23 12:27:35;;;;;;;1.23;0.20;;;25.50;76.60;;;;;;5053521;28;20025;-77
2022/05/23 12:30:24;;;;;;;1.15;0.40;;;25.50;77.50;;;;;;5053127;28;20064;-77
2022/05/23 12:32:58;;;;;;;1.85;0.20;;;25.00;78.80;;;;;;5054229;28;20036;-76
2022/05/23 12:35:39;;;;;;;3.75;0.55;;;25.00;83.90;;;;;;5055512;28;20491;-76
2022/05/23 12:38:36;;;;;;;3.60;0.50;;;24.80;84.30;;;;;;5056533;28;20025;-76
2022/05/23 12:41:13;;;;;;;2.63;0.70;;;24.50;86.30;;;;;;5056400;28;20017;-76
2022/05/23 12:44:14;;;;;;;7.43;0.98;;;24.20;91.70;;;;;;5056010;28;20037;-76
2022/05/23 12:46:54;;;;;;;4.05;1.08;;;23.90;91.50;;;;;;5051986;28;20055;-76
2022/05/23 12:49:41;;;;;;;4.13;1.63;;;23.60;94.80;;;;;;5056149;28;20029;-76
2022/05/23 12:52:46;;;;;;;2.97;1.23;;;23.40;95.10;;;;;;5055278;28;20032;-76
2022/05/23 12:55:30;;;;;;;6.70;0.95;;;23.20;97.70;;;;;;5054656;28;20091;-77
2022/05/23 12:58:13;;;;;;;3.70;1.30;;;23.10;99.50;;;;;;5055996;28;20028;-77
2022/05/23 13:00:50;;;;;;;3.95;0.70;;;23.10;99.90;;;;;;5056479;28;20108;-76
2022/05/23 13:03:49;;;;;;;7.43;2.78;;;23.20;99.90;;;;;;5054547;28;20112;-77
2022/05/23 13:06:53;;;;;;;9.55;1.48;;;23.20;98.90;;;;;;5055900;28;20035;-77
2022/05/23 13:09:28;;;;;;;3.90;1.40;;;23.20;99.70;;;;;;5052369;28;20033;-77
2022/05/23 13:11:58;;;;;;;4.13;1.70;;;23.10;99.90;;;;;;5055737;28;20488;-75
2022/05/23 13:14:24;;;;;;;5.70;1.40;;;23.00;99.90;;;;;;5056582;28;20013;-75
2022/05/23 13:16:54;;;;;;;7.07;1.90;;;22.90;99.90;;;;;;5055530;28;20498;-75
2022/05/23 13:22:12;;;;;;;8.15;2.35;;;22.70;99.90;;;;;;5056316;28;20063;-75
2022/05/23 13:24:49;;;;;;;6.28;2.05;;;22.60;99.90;;;;;;5054189;28;20115;-75
2022/05/23 13:27:23;;;;;;;4.80;2.22;;;22.40;99.90;;;;;;5055379;28;20075;-75
2022/05/23 13:30:01;;;;;;;6.50;2.20;;;22.30;99.90;;;;;;5054184;28;20425;-75
2022/05/23 13:32:28;;;;;;;6.28;2.88;;;22.20;99.90;;;;;;5055286;28;20039;-73
2022/05/23 13:34:56;;;;;;;8.82;2.58;;;22.00;99.90;;;;;;5055193;28;20487;-74
2022/05/23 13:37:28;;;;;;;11.35;3.65;;;21.80;99.90;;;;;;5056094;28;20029;-74
2022/05/23 13:39:54;;;;;;;7.65;4.18;;;21.60;99.90;;;;;;5055556;28;20080;-74
2022/05/23 13:42:25;;;;;;;7.38;4.55;;;21.30;99.90;;;;;;5055179;28;20032;-74
2022/05/23 13:44:51;;;;;;;9.57;4.90;;;21.00;99.90;;;;;;5053627;28;20100;-74
2022/05/23 13:47:24;;;;;;;16.48;5.05;;;20.70;99.90;;;;;;5054932;28;20029;-74
2022/05/23 13:50:02;;;;;;;9.63;4.13;;;20.40;99.90;;;;;;5053743;28;20372;-74
2022/05/23 13:52:41;;;;;;;12.18;5.40;;;20.20;99.90;;;;;;5054357;28;20079;-74
2022/05/23 13:55:13;;;;;;;;;;;20.00;99.90;;;;;;5055352;28;20025;-74
2022/05/23 13:57:45;;;;;;;10.90;5.18;;;19.90;99.90;;;;;;5055034;28;19916;-74
2022/05/23 14:00:15;;;;;;;13.40;5.50;;;19.80;99.90;;;;;;5053576;28;20032;-74
2022/05/23 14:02:55;;;;;;;13.88;6.05;;;19.70;99.90;;;;;;5054074;28;20056;-74
2022/05/23 14:05:22;;;;;;;13.57;6.85;;;19.60;99.90;;;;;;5055262;28;20075;-74
2022/05/23 14:07:48;;;;;;;11.32;6.45;;;19.50;99.90;;;;;;5055802;28;20032;-74
2022/05/23 14:10:22;;;;;;;9.25;6.38;;;19.50;99.90;;;;;;5054077;28;20021;-74
2022/05/23 14:12:49;;;;;;;12.13;6.03;;;19.30;99.90;;;;;;5055673;28;20025;-74
2022/05/23 14:15:21;;;;;;;8.65;5.65;;;19.30;99.90;;;;;;5053875;28;20025;-75
2022/05/23 14:17:49;;;;;;;13.18;6.25;;;19.20;99.90;;;;;;5055408;28;20024;-74